sensor_id;sensor_type;location;lat;lon;timestamp;pressure;altitude;pressure_sealevel;temperature;humidity
17615;BME280;8926;49.720;6.576;2022-09-09T00:00:58;99158.31;;;17.83;77.78
17615;BME280;8926;49.720;6.576;2022-09-09T00:03:56;99155.28;;;17.78;78.23
17615;BME280;8926;49.720;6.576;2022-09-09T00:06:30;99148.63;;;17.74;77.97
17615;BME280;8926;49.720;6.576;2022-09-09T00:09:12;99151.41;;;17.72;78.41
17615;BME280;8926;49.720;6.576;2022-09-09T00:11:49;99145.28;;;17.72;78.60
17615;BME280;8926;49.720;6.576;2022-09-09T00:14:23;99140.69;;;17.74;78.44
17615;BME280;8926;49.720;6.576;2022-09-09T00:16:56;99140.28;;;17.69;78.19
17615;BME280;8926;49.720;6.576;2022-09-09T00:19:45;99144.50;;;17.61;78.60
17615;BME280;8926;49.720;6.576;2022-09-09T00:22:21;99141.31;;;17.58;78.32
17615;BME280;8926;49.720;6.576;2022-09-09T00:24:55;99143.41;;;17.54;78.62
17615;BME280;8926;49.720;6.576;2022-09-09T00:27:29;99148.69;;;17.54;78.91
17615;BME280;8926;49.720;6.576;2022-09-09T00:30:00;99152.84;;;17.57;78.85
17615;BME280;8926;49.720;6.576;2022-09-09T00:32:30;99149.53;;;17.65;78.54
17615;BME280;8926;49.720;6.576;2022-09-09T00:35:03;99153.34;;;17.70;78.28
17615;BME280;8926;49.720;6.576;2022-09-09T00:37:32;99145.00;;;17.75;78.64
17615;BME280;8926;49.720;6.576;2022-09-09T00:40:01;99153.63;;;17.77;77.83
17615;BME280;8926;49.720;6.576;2022-09-09T00:42:47;99158.91;;;17.77;78.13
17615;BME280;8926;49.720;6.576;2022-09-09T00:45:42;99161.25;;;17.80;78.70
17615;BME280;8926;49.720;6.576;2022-09-09T00:48:16;99162.78;;;17.82;78.16
17615;BME280;8926;49.720;6.576;2022-09-09T00:51:15;99164.28;;;17.85;77.81
17615;BME280;8926;49.720;6.576;2022-09-09T00:54:03;99164.69;;;17.90;77.27
17615;BME280;8926;49.720;6.576;2022-09-09T00:57:10;99162.03;;;17.90;77.10
17615;BME280;8926;49.720;6.576;2022-09-09T01:00:16;99166.63;;;17.88;77.16
17615;BME280;8926;49.720;6.576;2022-09-09T01:05:54;99171.38;;;17.84;77.13
17615;BME280;8926;49.720;6.576;2022-09-09T01:10:59;99179.56;;;17.91;76.61
17615;BME280;8926;49.720;6.576;2022-09-09T01:13:25;99171.94;;;17.88;76.43
17615;BME280;8926;49.720;6.576;2022-09-09T01:15:53;99171.94;;;17.88;76.37
17615;BME280;8926;49.720;6.576;2022-09-09T01:18:21;99171.38;;;17.84;76.86
17615;BME280;8926;49.720;6.576;2022-09-09T01:23:44;99175.16;;;17.82;76.49
17615;BME280;8926;49.720;6.576;2022-09-09T01:28:47;99174.47;;;17.80;76.75
17615;BME280;8926;49.720;6.576;2022-09-09T01:31:20;99170.44;;;17.76;77.23
17615;BME280;8926;49.720;6.576;2022-09-09T01:33:46;99178.06;;;17.79;77.41
17615;BME280;8926;49.720;6.576;2022-09-09T01:38:56;99180.28;;;17.83;77.77
17615;BME280;8926;49.720;6.576;2022-09-09T01:41:22;99181.25;;;17.82;77.67
17615;BME280;8926;49.720;6.576;2022-09-09T01:43:48;99181.13;;;17.84;77.67
17615;BME280;8926;49.720;6.576;2022-09-09T01:46:14;99185.44;;;17.85;77.13
17615;BME280;8926;49.720;6.576;2022-09-09T01:48:40;99179.16;;;17.86;77.52
17615;BME280;8926;49.720;6.576;2022-09-09T01:51:08;99182.78;;;17.85;77.86
17615;BME280;8926;49.720;6.576;2022-09-09T01:53:34;99169.19;;;17.80;77.73
17615;BME280;8926;49.720;6.576;2022-09-09T01:58:56;99165.56;;;17.81;76.93
17615;BME280;8926;49.720;6.576;2022-09-09T02:07:07;99151.06;;;17.85;76.52
17615;BME280;8926;49.720;6.576;2022-09-09T02:09:36;99154.41;;;17.87;76.03
17615;BME280;8926;49.720;6.576;2022-09-09T02:12:08;99159.69;;;17.87;76.67
17615;BME280;8926;49.720;6.576;2022-09-09T02:14:41;99163.03;;;17.89;76.96
17615;BME280;8926;49.720;6.576;2022-09-09T02:17:10;99157.72;;;17.89;76.60
17615;BME280;8926;49.720;6.576;2022-09-09T02:19:39;99154.13;;;17.90;77.00
17615;BME280;8926;49.720;6.576;2022-09-09T02:22:07;99157.13;;;17.95;76.37
17615;BME280;8926;49.720;6.576;2022-09-09T02:24:35;99153.50;;;17.96;76.29
17615;BME280;8926;49.720;6.576;2022-09-09T02:27:03;99154.56;;;18.03;76.50
17615;BME280;8926;49.720;6.576;2022-09-09T02:29:34;99149.00;;;18.06;76.92
17615;BME280;8926;49.720;6.576;2022-09-09T02:32:03;99135.47;;;18.09;76.95
17615;BME280;8926;49.720;6.576;2022-09-09T02:34:31;99160.09;;;18.10;75.91
17615;BME280;8926;49.720;6.576;2022-09-09T02:36:59;99157.22;;;18.03;76.07
17615;BME280;8926;49.720;6.576;2022-09-09T02:39:26;99158.19;;;18.02;75.76
17615;BME280;8926;49.720;6.576;2022-09-09T02:41:51;99156.13;;;17.96;76.44
17615;BME280;8926;49.720;6.576;2022-09-09T02:44:18;99155.44;;;17.94;76.53
17615;BME280;8926;49.720;6.576;2022-09-09T02:49:43;99145.19;;;17.91;76.58
17615;BME280;8926;49.720;6.576;2022-09-09T02:52:15;99149.94;;;17.87;76.61
17615;BME280;8926;49.720;6.576;2022-09-09T02:54:44;99152.44;;;17.89;76.21
17615;BME280;8926;49.720;6.576;2022-09-09T02:59:37;99147.34;;;17.78;76.96
17615;BME280;8926;49.720;6.576;2022-09-09T03:02:02;99146.66;;;17.76;77.15
17615;BME280;8926;49.720;6.576;2022-09-09T03:04:28;99144.41;;;17.81;76.69
17615;BME280;8926;49.720;6.576;2022-09-09T03:06:55;99144.41;;;17.81;76.83
17615;BME280;8926;49.720;6.576;2022-09-09T03:09:21;99146.09;;;17.82;77.45
17615;BME280;8926;49.720;6.576;2022-09-09T03:11:46;99140.50;;;17.85;76.47
17615;BME280;8926;49.720;6.576;2022-09-09T03:14:12;99150.78;;;17.88;76.22
17615;BME280;8926;49.720;6.576;2022-09-09T03:16:37;99146.09;;;17.82;77.05
17615;BME280;8926;49.720;6.576;2022-09-09T03:19:02;99153.03;;;17.83;76.97
17615;BME280;8926;49.720;6.576;2022-09-09T03:21:28;99143.84;;;17.87;77.21
17615;BME280;8926;49.720;6.576;2022-09-09T03:23:53;99146.03;;;17.91;76.91
17615;BME280;8926;49.720;6.576;2022-09-09T03:26:19;99146.88;;;17.92;76.48
17615;BME280;8926;49.720;6.576;2022-09-09T03:28:45;99145.19;;;17.91;76.73
17615;BME280;8926;49.720;6.576;2022-09-09T03:31:11;99144.88;;;17.94;76.65
17615;BME280;8926;49.720;6.576;2022-09-09T03:33:39;99146.88;;;17.92;76.27
17615;BME280;8926;49.720;6.576;2022-09-09T03:36:06;99143.22;;;17.93;76.65
17615;BME280;8926;49.720;6.576;2022-09-09T03:38:33;99144.59;;;17.97;75.90
17615;BME280;8926;49.720;6.576;2022-09-09T03:41:00;99139.22;;;17.89;76.26
17615;BME280;8926;49.720;6.576;2022-09-09T03:43:26;99143.97;;;17.85;76.08
17615;BME280;8926;49.720;6.576;2022-09-09T03:45:53;99141.47;;;17.84;76.39
17615;BME280;8926;49.720;6.576;2022-09-09T03:48:21;99140.78;;;17.82;76.41
17615;BME280;8926;49.720;6.576;2022-09-09T03:50:48;99142.75;;;17.80;76.89
17615;BME280;8926;49.720;6.576;2022-09-09T03:53:15;99151.38;;;17.82;76.83
17615;BME280;8926;49.720;6.576;2022-09-09T03:55:45;99143.28;;;17.83;76.64
17615;BME280;8926;49.720;6.576;2022-09-09T03:58:12;99143.28;;;17.83;76.33
17615;BME280;8926;49.720;6.576;2022-09-09T04:00:38;99156.94;;;17.79;76.09
17615;BME280;8926;49.720;6.576;2022-09-09T04:03:08;99147.94;;;17.72;76.85
17615;BME280;8926;49.720;6.576;2022-09-09T04:05:33;99149.19;;;17.68;76.83
17615;BME280;8926;49.720;6.576;2022-09-09T04:07:59;99151.19;;;17.66;76.80
17615;BME280;8926;49.720;6.576;2022-09-09T04:10:24;99149.53;;;17.65;76.98
17615;BME280;8926;49.720;6.576;2022-09-09T04:12:49;99148.66;;;17.64;76.50
17615;BME280;8926;49.720;6.576;2022-09-09T04:15:15;99147.81;;;17.63;76.79
17615;BME280;8926;49.720;6.576;2022-09-09T04:17:40;99145.63;;;17.59;77.15
17615;BME280;8926;49.720;6.576;2022-09-09T04:20:05;99150.34;;;17.55;77.03
17615;BME280;8926;49.720;6.576;2022-09-09T04:22:33;99143.41;;;17.54;76.91
17615;BME280;8926;49.720;6.576;2022-09-09T04:24:59;99146.19;;;17.53;77.00
17615;BME280;8926;49.720;6.576;2022-09-09T04:27:24;99153.41;;;17.51;77.31
17615;BME280;8926;49.720;6.576;2022-09-09T04:29:49;99147.59;;;17.47;76.94
17615;BME280;8926;49.720;6.576;2022-09-09T04:32:14;99155.81;;;17.44;77.43
17615;BME280;8926;49.720;6.576;2022-09-09T04:34:40;99154.81;;;17.45;77.28
17615;BME280;8926;49.720;6.576;2022-09-09T04:37:06;99155.13;;;17.42;77.26
17615;BME280;8926;49.720;6.576;2022-09-09T04:39:31;99152.78;;;17.39;77.54
17615;BME280;8926;49.720;6.576;2022-09-09T04:41:56;99153.22;;;17.35;77.97
17615;BME280;8926;49.720;6.576;2022-09-09T04:44:22;99146.81;;;17.37;77.52
17615;BME280;8926;49.720;6.576;2022-09-09T04:46:47;99151.00;;;17.30;77.57
17615;BME280;8926;49.720;6.576;2022-09-09T04:49:12;99149.34;;;17.29;77.49
17615;BME280;8926;49.720;6.576;2022-09-09T04:51:38;99152.97;;;17.28;77.59
17615;BME280;8926;49.720;6.576;2022-09-09T04:54:04;99154.09;;;17.16;77.55
17615;BME280;8926;49.720;6.576;2022-09-09T04:56:30;99158.03;;;17.12;77.87
17615;BME280;8926;49.720;6.576;2022-09-09T04:58:56;99161.63;;;17.11;77.92
17615;BME280;8926;49.720;6.576;2022-09-09T05:01:21;99166.91;;;17.11;77.68
17615;BME280;8926;49.720;6.576;2022-09-09T05:03:48;99166.91;;;17.11;77.95
17615;BME280;8926;49.720;6.576;2022-09-09T05:06:15;99159.69;;;17.13;77.70
17615;BME280;8926;49.720;6.576;2022-09-09T05:08:43;99166.91;;;17.11;77.73
17615;BME280;8926;49.720;6.576;2022-09-09T05:11:20;99162.31;;;17.13;77.85
17615;BME280;8926;49.720;6.576;2022-09-09T05:13:47;99173.25;;;17.18;77.41
17615;BME280;8926;49.720;6.576;2022-09-09T05:16:13;99177.56;;;17.19;77.60
17615;BME280;8926;49.720;6.576;2022-09-09T05:18:40;99170.47;;;17.19;77.60
17615;BME280;8926;49.720;6.576;2022-09-09T05:21:06;99182.84;;;17.19;77.58
17615;BME280;8926;49.720;6.576;2022-09-09T05:23:32;99184.13;;;17.15;77.86
17615;BME280;8926;49.720;6.576;2022-09-09T05:25:59;99182.28;;;17.15;77.92
17615;BME280;8926;49.720;6.576;2022-09-09T05:28:25;99181.31;;;17.16;77.91
17615;BME280;8926;49.720;6.576;2022-09-09T05:30:58;99185.19;;;17.22;77.56
17615;BME280;8926;49.720;6.576;2022-09-09T05:33:24;99183.25;;;17.24;76.96
17615;BME280;8926;49.720;6.576;2022-09-09T05:36:20;99188.25;;;17.27;76.95
17615;BME280;8926;49.720;6.576;2022-09-09T05:38:46;99183.81;;;17.27;76.90
17615;BME280;8926;49.720;6.576;2022-09-09T05:41:12;99183.25;;;17.34;76.85
17615;BME280;8926;49.720;6.576;2022-09-09T05:43:40;99185.75;;;17.35;76.70
17615;BME280;8926;49.720;6.576;2022-09-09T05:46:07;99187.00;;;17.31;76.78
17615;BME280;8926;49.720;6.576;2022-09-09T05:48:38;99185.03;;;17.33;76.80
17615;BME280;8926;49.720;6.576;2022-09-09T05:51:05;99189.06;;;17.37;76.58
17615;BME280;8926;49.720;6.576;2022-09-09T05:53:32;99190.41;;;17.41;76.43
17615;BME280;8926;49.720;6.576;2022-09-09T05:56:00;99193.75;;;17.43;76.50
17615;BME280;8926;49.720;6.576;2022-09-09T05:58:26;99185.13;;;17.41;76.69
17615;BME280;8926;49.720;6.576;2022-09-09T06:00:52;99186.53;;;17.45;76.32
17615;BME280;8926;49.720;6.576;2022-09-09T06:03:19;99191.81;;;17.45;76.19
17615;BME280;8926;49.720;6.576;2022-09-09T06:05:57;99188.47;;;17.43;76.52
17615;BME280;8926;49.720;6.576;2022-09-09T06:08:22;99190.13;;;17.44;76.64
17615;BME280;8926;49.720;6.576;2022-09-09T06:10:47;99184.03;;;17.44;76.35
17615;BME280;8926;49.720;6.576;2022-09-09T06:13:12;99190.13;;;17.44;75.98
17615;BME280;8926;49.720;6.576;2022-09-09T06:15:38;99189.84;;;17.47;76.28
17615;BME280;8926;49.720;6.576;2022-09-09T06:18:03;99193.47;;;17.46;75.96
17615;BME280;8926;49.720;6.576;2022-09-09T06:20:28;99193.47;;;17.46;76.12
17615;BME280;8926;49.720;6.576;2022-09-09T06:22:55;99190.69;;;17.48;76.17
17615;BME280;8926;49.720;6.576;2022-09-09T06:25:20;99193.19;;;17.49;75.76
17615;BME280;8926;49.720;6.576;2022-09-09T06:27:48;99198.28;;;17.60;75.44
17615;BME280;8926;49.720;6.576;2022-09-09T06:30:14;99194.00;;;17.59;75.30
17615;BME280;8926;49.720;6.576;2022-09-09T06:32:40;99198.44;;;17.59;75.31
17615;BME280;8926;49.720;6.576;2022-09-09T06:35:05;99189.25;;;17.63;74.97
17615;BME280;8926;49.720;6.576;2022-09-09T06:37:31;99184.34;;;18.68;72.08
17615;BME280;8926;49.720;6.576;2022-09-09T06:39:56;99182.78;;;19.27;69.66
17615;BME280;8926;49.720;6.576;2022-09-09T06:42:21;99179.25;;;18.92;70.04
17615;BME280;8926;49.720;6.576;2022-09-09T06:44:47;99183.66;;;18.66;70.81
17615;BME280;8926;49.720;6.576;2022-09-09T06:47:12;99187.38;;;18.46;71.17
17615;BME280;8926;49.720;6.576;2022-09-09T06:49:40;99189.16;;;18.37;71.39
17615;BME280;8926;49.720;6.576;2022-09-09T06:52:06;99190.13;;;18.18;72.03
17615;BME280;8926;49.720;6.576;2022-09-09T06:54:31;99198.03;;;18.18;72.08
17615;BME280;8926;49.720;6.576;2022-09-09T06:56:56;99192.06;;;18.16;71.99
17615;BME280;8926;49.720;6.576;2022-09-09T06:59:22;99192.06;;;18.16;72.05
17615;BME280;8926;49.720;6.576;2022-09-09T07:01:47;99200.69;;;18.18;72.07
17615;BME280;8926;49.720;6.576;2022-09-09T07:04:13;99201.28;;;18.12;72.21
17615;BME280;8926;49.720;6.576;2022-09-09T07:06:41;99210.34;;;18.10;72.23
17615;BME280;8926;49.720;6.576;2022-09-09T07:09:10;99214.09;;;18.07;73.04
17615;BME280;8926;49.720;6.576;2022-09-09T07:11:40;99224.97;;;18.04;72.47
17615;BME280;8926;49.720;6.576;2022-09-09T07:14:07;99218.22;;;17.92;72.59
17615;BME280;8926;49.720;6.576;2022-09-09T07:16:33;99216.41;;;17.92;72.87
17615;BME280;8926;49.720;6.576;2022-09-09T07:19:00;99216.72;;;17.89;73.02
17615;BME280;8926;49.720;6.576;2022-09-09T07:21:26;99208.47;;;17.92;71.94
17615;BME280;8926;49.720;6.576;2022-09-09T07:23:52;99216.63;;;17.99;71.80
17615;BME280;8926;49.720;6.576;2022-09-09T07:26:21;99218.50;;;18.16;71.58
17615;BME280;8926;49.720;6.576;2022-09-09T07:28:46;99218.09;;;18.39;70.51
17615;BME280;8926;49.720;6.576;2022-09-09T07:31:21;99218.47;;;18.44;70.54
17615;BME280;8926;49.720;6.576;2022-09-09T07:33:47;99211.13;;;18.38;70.46
17615;BME280;8926;49.720;6.576;2022-09-09T07:36:18;99219.25;;;18.26;70.29
17615;BME280;8926;49.720;6.576;2022-09-09T07:38:49;99223.53;;;18.10;69.84
17615;BME280;8926;49.720;6.576;2022-09-09T07:41:17;99228.88;;;18.00;70.55
17615;BME280;8926;49.720;6.576;2022-09-09T07:43:45;99211.63;;;17.96;71.02
17615;BME280;8926;49.720;6.576;2022-09-09T07:46:13;99221.44;;;17.86;70.42
17615;BME280;8926;49.720;6.576;2022-09-09T07:48:52;99221.84;;;17.91;70.81
17615;BME280;8926;49.720;6.576;2022-09-09T07:51:28;99221.63;;;18.02;70.52
17615;BME280;8926;49.720;6.576;2022-09-09T07:53:56;99234.75;;;17.94;70.42
17615;BME280;8926;49.720;6.576;2022-09-09T07:56:23;99228.88;;;18.00;70.67
17615;BME280;8926;49.720;6.576;2022-09-09T07:58:50;99224.66;;;18.07;70.68
17615;BME280;8926;49.720;6.576;2022-09-09T08:01:16;99221.59;;;18.12;69.94
17615;BME280;8926;49.720;6.576;2022-09-09T08:03:46;99226.34;;;18.08;70.30
17615;BME280;8926;49.720;6.576;2022-09-09T08:06:12;99219.97;;;18.01;69.86
17615;BME280;8926;49.720;6.576;2022-09-09T08:08:39;99219.69;;;18.04;69.80
17615;BME280;8926;49.720;6.576;2022-09-09T08:11:13;99221.91;;;17.99;70.37
17615;BME280;8926;49.720;6.576;2022-09-09T08:13:43;99226.91;;;18.02;69.91
17615;BME280;8926;49.720;6.576;2022-09-09T08:16:12;99226.63;;;18.05;70.09
17615;BME280;8926;49.720;6.576;2022-09-09T08:18:38;99215.47;;;18.11;70.52
17615;BME280;8926;49.720;6.576;2022-09-09T08:21:15;99222.56;;;18.11;69.26
17615;BME280;8926;49.720;6.576;2022-09-09T08:23:43;99216.59;;;18.09;69.40
17615;BME280;8926;49.720;6.576;2022-09-09T08:26:12;99214.09;;;18.07;70.04
17615;BME280;8926;49.720;6.576;2022-09-09T08:28:39;99219.97;;;18.01;70.85
17615;BME280;8926;49.720;6.576;2022-09-09T08:33:32;99227.72;;;18.12;71.72
17615;BME280;8926;49.720;6.576;2022-09-09T08:35:58;99221.06;;;18.08;71.54
17615;BME280;8926;49.720;6.576;2022-09-09T08:38:24;99228.44;;;18.05;72.20
17615;BME280;8926;49.720;6.576;2022-09-09T08:40:52;99233.03;;;18.03;72.42
17615;BME280;8926;49.720;6.576;2022-09-09T08:43:21;99225.84;;;17.95;73.42
17615;BME280;8926;49.720;6.576;2022-09-09T08:48:31;99238.59;;;17.72;74.85
17615;BME280;8926;49.720;6.576;2022-09-09T08:51:03;99232.34;;;17.63;75.54
17615;BME280;8926;49.720;6.576;2022-09-09T08:53:39;99240.56;;;17.60;76.20
17615;BME280;8926;49.720;6.576;2022-09-09T08:56:14;99238.50;;;17.54;77.09
17615;BME280;8926;49.720;6.576;2022-09-09T08:58:49;99248.22;;;17.54;77.13
17615;BME280;8926;49.720;6.576;2022-09-09T09:12:19;99243.94;;;18.45;74.83
17615;BME280;8926;49.720;6.576;2022-09-09T09:14:47;99238.59;;;18.72;75.24
17615;BME280;8926;49.720;6.576;2022-09-09T09:17:15;99242.16;;;18.98;74.49
17615;BME280;8926;49.720;6.576;2022-09-09T09:19:42;99236.47;;;19.11;73.00
17615;BME280;8926;49.720;6.576;2022-09-09T09:22:19;99229.44;;;19.20;72.87
17615;BME280;8926;49.720;6.576;2022-09-09T09:25:05;99228.59;;;19.19;72.72
17615;BME280;8926;49.720;6.576;2022-09-09T09:28:03;99236.53;;;19.02;72.70
17615;BME280;8926;49.720;6.576;2022-09-09T09:30:42;99225.22;;;18.91;73.25
17615;BME280;8926;49.720;6.576;2022-09-09T09:35:45;99237.31;;;18.76;72.76
17615;BME280;8926;49.720;6.576;2022-09-09T09:38:19;99242.91;;;18.73;72.81
17615;BME280;8926;49.720;6.576;2022-09-09T09:40:53;99236.88;;;18.63;72.63
17615;BME280;8926;49.720;6.576;2022-09-09T09:43:36;99236.06;;;18.53;73.77
17615;BME280;8926;49.720;6.576;2022-09-09T09:46:05;99235.31;;;18.70;73.77
17615;BME280;8926;49.720;6.576;2022-09-09T09:48:43;99226.63;;;19.47;71.37
17615;BME280;8926;49.720;6.576;2022-09-09T09:51:11;99217.72;;;19.74;68.98
17615;BME280;8926;49.720;6.576;2022-09-09T09:53:39;99220.56;;;19.89;68.83
17615;BME280;8926;49.720;6.576;2022-09-09T09:56:10;99224.22;;;19.88;67.50
17615;BME280;8926;49.720;6.576;2022-09-09T09:58:56;99220.78;;;19.95;67.07
17615;BME280;8926;49.720;6.576;2022-09-09T10:01:23;99218.81;;;20.48;65.93
17615;BME280;8926;49.720;6.576;2022-09-09T10:04:02;99200.59;;;21.26;63.35
17615;BME280;8926;49.720;6.576;2022-09-09T10:06:36;99201.59;;;21.00;62.16
17615;BME280;8926;49.720;6.576;2022-09-09T10:09:17;99211.88;;;20.87;63.45
17615;BME280;8926;49.720;6.576;2022-09-09T10:14:38;99212.09;;;20.36;63.49
17615;BME280;8926;49.720;6.576;2022-09-09T10:17:13;99204.44;;;20.16;63.08
17615;BME280;8926;49.720;6.576;2022-09-09T10:19:45;99212.34;;;20.00;63.34
17615;BME280;8926;49.720;6.576;2022-09-09T10:22:28;99215.06;;;19.82;63.73
17615;BME280;8926;49.720;6.576;2022-09-09T10:27:59;99204.72;;;19.97;63.42
17615;BME280;8926;49.720;6.576;2022-09-09T10:38:48;99186.31;;;21.27;60.56
17615;BME280;8926;49.720;6.576;2022-09-09T10:52:50;99178.00;;;20.65;60.25
17615;BME280;8926;49.720;6.576;2022-09-09T10:55:26;99177.69;;;20.76;61.07
17615;BME280;8926;49.720;6.576;2022-09-09T10:57:54;99165.38;;;21.08;58.16
17615;BME280;8926;49.720;6.576;2022-09-09T11:00:41;99169.38;;;21.04;58.49
17615;BME280;8926;49.720;6.576;2022-09-09T11:03:24;99168.56;;;20.95;57.90
17615;BME280;8926;49.720;6.576;2022-09-09T11:05:57;99175.34;;;20.81;57.70
17615;BME280;8926;49.720;6.576;2022-09-09T11:08:29;99171.22;;;20.62;57.96
17615;BME280;8926;49.720;6.576;2022-09-09T11:13:51;99176.50;;;20.38;58.73
17615;BME280;8926;49.720;6.576;2022-09-09T11:16:34;99167.25;;;20.50;59.13
17615;BME280;8926;49.720;6.576;2022-09-09T11:19:04;99167.91;;;20.77;58.70
17615;BME280;8926;49.720;6.576;2022-09-09T11:21:43;99159.22;;;21.07;58.22
17615;BME280;8926;49.720;6.576;2022-09-09T11:24:15;99148.31;;;21.65;56.38
17615;BME280;8926;49.720;6.576;2022-09-09T11:26:52;99155.50;;;21.96;55.60
17615;BME280;8926;49.720;6.576;2022-09-09T11:29:43;99148.88;;;21.84;56.72
17615;BME280;8926;49.720;6.576;2022-09-09T11:35:29;99153.09;;;21.07;57.48
17615;BME280;8926;49.720;6.576;2022-09-09T11:38:19;99158.44;;;20.90;57.87
17615;BME280;8926;49.720;6.576;2022-09-09T11:40:47;99165.09;;;20.70;58.04
17615;BME280;8926;49.720;6.576;2022-09-09T11:43:32;99181.00;;;20.86;59.13
17615;BME280;8926;49.720;6.576;2022-09-09T11:46:01;99171.38;;;20.69;59.42
17615;BME280;8926;49.720;6.576;2022-09-09T11:48:39;99161.44;;;20.47;59.06
17615;BME280;8926;49.720;6.576;2022-09-09T11:51:24;99169.72;;;20.52;59.86
17615;BME280;8926;49.720;6.576;2022-09-09T11:53:53;99164.75;;;20.97;59.50
17615;BME280;8926;49.720;6.576;2022-09-09T11:59:06;99163.22;;;22.14;57.32
17615;BME280;8926;49.720;6.576;2022-09-09T12:01:42;99161.41;;;22.14;56.71
17615;BME280;8926;49.720;6.576;2022-09-09T12:06:54;99152.41;;;22.15;57.09
17615;BME280;8926;49.720;6.576;2022-09-09T12:11:52;99152.25;;;22.40;56.95
17615;BME280;8926;49.720;6.576;2022-09-09T12:14:34;99153.88;;;22.49;56.36
17615;BME280;8926;49.720;6.576;2022-09-09T12:17:10;99152.38;;;22.46;56.13
17615;BME280;8926;49.720;6.576;2022-09-09T12:19:42;99141.03;;;22.52;56.23
17615;BME280;8926;49.720;6.576;2022-09-09T12:22:27;99147.88;;;22.69;55.23
17615;BME280;8926;49.720;6.576;2022-09-09T12:28:04;99139.53;;;22.73;55.30
17615;BME280;8926;49.720;6.576;2022-09-09T12:30:44;99143.03;;;22.27;56.29
17615;BME280;8926;49.720;6.576;2022-09-09T12:33:16;99154.16;;;22.08;56.68
17615;BME280;8926;49.720;6.576;2022-09-09T12:35:44;99132.41;;;22.27;55.75
17615;BME280;8926;49.720;6.576;2022-09-09T12:38:16;99131.91;;;22.47;55.87
17615;BME280;8926;49.720;6.576;2022-09-09T12:40:55;99129.84;;;22.57;55.49
17615;BME280;8926;49.720;6.576;2022-09-09T12:43:23;99118.75;;;22.68;55.04
17615;BME280;8926;49.720;6.576;2022-09-09T12:45:50;99117.00;;;22.83;54.71
17615;BME280;8926;49.720;6.576;2022-09-09T12:48:45;99120.50;;;22.98;54.35
17615;BME280;8926;49.720;6.576;2022-09-09T12:51:21;99114.25;;;22.91;54.68
17615;BME280;8926;49.720;6.576;2022-09-09T12:53:50;99110.09;;;22.89;54.01
17615;BME280;8926;49.720;6.576;2022-09-09T12:56:24;99102.50;;;22.63;54.08
17615;BME280;8926;49.720;6.576;2022-09-09T12:58:52;99091.41;;;22.37;53.70
17615;BME280;8926;49.720;6.576;2022-09-09T13:01:22;99098.78;;;22.49;53.65
17615;BME280;8926;49.720;6.576;2022-09-09T13:03:48;99100.63;;;22.49;52.36
17615;BME280;8926;49.720;6.576;2022-09-09T13:06:20;99096.75;;;22.74;52.29
17615;BME280;8926;49.720;6.576;2022-09-09T13:08:47;99099.00;;;22.85;50.20
17615;BME280;8926;49.720;6.576;2022-09-09T13:11:17;99101.69;;;22.85;50.62
17615;BME280;8926;49.720;6.576;2022-09-09T13:13:50;99101.22;;;22.96;50.09
17615;BME280;8926;49.720;6.576;2022-09-09T13:16:30;99088.47;;;23.07;50.31
17615;BME280;8926;49.720;6.576;2022-09-09T13:18:58;99080.84;;;23.04;49.71
17615;BME280;8926;49.720;6.576;2022-09-09T13:21:40;99079.81;;;23.05;50.79
17615;BME280;8926;49.720;6.576;2022-09-09T13:24:34;99081.91;;;22.94;50.83
17615;BME280;8926;49.720;6.576;2022-09-09T13:27:02;99087.97;;;22.88;50.84
17615;BME280;8926;49.720;6.576;2022-09-09T13:29:28;99081.56;;;22.97;51.07
17615;BME280;8926;49.720;6.576;2022-09-09T13:32:04;99090.38;;;22.83;50.39
17615;BME280;8926;49.720;6.576;2022-09-09T13:34:34;99090.72;;;22.80;51.16
17615;BME280;8926;49.720;6.576;2022-09-09T13:37:05;99090.72;;;22.80;51.66
17615;BME280;8926;49.720;6.576;2022-09-09T13:39:35;99092.50;;;22.65;51.34
17615;BME280;8926;49.720;6.576;2022-09-09T13:42:02;99095.34;;;22.41;51.38
17615;BME280;8926;49.720;6.576;2022-09-09T13:44:31;99101.88;;;22.15;51.19
17615;BME280;8926;49.720;6.576;2022-09-09T13:47:05;99114.94;;;22.02;51.86
17615;BME280;8926;49.720;6.576;2022-09-09T13:49:31;99122.97;;;21.86;51.29
17615;BME280;8926;49.720;6.576;2022-09-09T13:52:15;99121.06;;;21.63;52.00
17615;BME280;8926;49.720;6.576;2022-09-09T13:54:41;99110.53;;;21.47;52.50
17615;BME280;8926;49.720;6.576;2022-09-09T13:57:24;99138.81;;;21.24;53.48
17615;BME280;8926;49.720;6.576;2022-09-09T13:59:51;99182.00;;;20.85;62.54
17615;BME280;8926;49.720;6.576;2022-09-09T14:02:17;99201.72;;;20.42;64.45
17615;BME280;8926;49.720;6.576;2022-09-09T14:04:43;99198.25;;;20.08;66.13
17615;BME280;8926;49.720;6.576;2022-09-09T14:07:12;99198.28;;;19.65;67.26
17615;BME280;8926;49.720;6.576;2022-09-09T14:09:39;99190.47;;;19.38;68.21
17615;BME280;8926;49.720;6.576;2022-09-09T14:12:05;99204.50;;;19.30;69.07
17615;BME280;8926;49.720;6.576;2022-09-09T14:14:33;99213.88;;;19.25;68.15
17615;BME280;8926;49.720;6.576;2022-09-09T14:16:58;99206.19;;;19.14;68.91
17615;BME280;8926;49.720;6.576;2022-09-09T14:19:23;99224.94;;;18.94;69.40
17615;BME280;8926;49.720;6.576;2022-09-09T14:21:49;99226.22;;;18.90;68.39
17615;BME280;8926;49.720;6.576;2022-09-09T14:24:15;99218.88;;;18.84;68.02
17615;BME280;8926;49.720;6.576;2022-09-09T14:26:41;99223.06;;;18.69;69.74
17615;BME280;8926;49.720;6.576;2022-09-09T14:29:06;99214.72;;;18.64;70.91
17615;BME280;8926;49.720;6.576;2022-09-09T14:31:32;99217.38;;;18.64;71.54
17615;BME280;8926;49.720;6.576;2022-09-09T14:33:57;99222.38;;;18.67;70.06
17615;BME280;8926;49.720;6.576;2022-09-09T14:36:23;99204.53;;;18.69;71.76
17615;BME280;8926;49.720;6.576;2022-09-09T14:38:49;99202.53;;;18.71;71.99
17615;BME280;8926;49.720;6.576;2022-09-09T14:41:17;99201.56;;;18.72;72.19
17615;BME280;8926;49.720;6.576;2022-09-09T14:43:43;99200.91;;;18.70;73.09
17615;BME280;8926;49.720;6.576;2022-09-09T14:46:11;99200.56;;;18.73;73.34
17615;BME280;8926;49.720;6.576;2022-09-09T14:48:37;99205.56;;;18.76;71.61
17615;BME280;8926;49.720;6.576;2022-09-09T14:51:14;99201.63;;;18.80;72.40
17615;BME280;8926;49.720;6.576;2022-09-09T14:53:41;99197.41;;;18.87;72.57
17615;BME280;8926;49.720;6.576;2022-09-09T14:56:12;99198.47;;;18.94;71.97